Rices Landing, Pennsylvania
Current Conditions -  °F | °C
As of 1:15 PM on Thursday 30 Oct 2014 (Local Time) from KAFJ Reporting Station
Overcast Overcast  
Wind Chill: 48°   Ceiling: 4700
Heat Index: 48°   Visibility: 10mi
Dew Point: 36°   Wind: 0mph
Humidity: 62%   Direction: NA
Pressure: 30.11"   Gusts: NA
Location:  39.95°N, 80°W
Report Text: KAFJ 301715Z AUTO 00000KT 10SM SCT030 OVC047 09/02 A3011 RMK AO1
Loading
Personal Weather Stations






























Interactive Weather Map
Tropical Storm Tracking
New forecast layout! Learn more

10-Day Weather Forecast

Advertisements
Track Severe Weather on mobile